Time;durP1;ratioP1;P1;durP2;ratioP2;P2;SDS_P1;SDS_P2;PMS_P1;PMS_P2;Temp;Humidity;BMP_temperature;BMP_pressure;BME280_temperature;BME280_humidity;BME280_pressure;Samples;Min_cycle;Max_cycle;Signal;HPM_P1;HPM_P2
2022/11/01 00:21:27;;;;;;;;;;;22.50;36.00;;;;;;5129505;27;19925;-73
2022/11/01 00:23:54;;;;;;;;;;;22.60;36.30;;;;;;5129601;27;20370;-72
2022/11/01 00:26:21;;;;;;;;;;;22.60;36.00;;;;;;5105193;27;19916;-73
2022/11/01 00:28:48;;;;;;;;;;;22.80;37.10;;;;;;5123413;27;19908;-72
2022/11/01 00:31:15;;;;;;;;;;;22.80;35.80;;;;;;5129371;27;19912;-73
2022/11/01 00:33:41;;;;;;;;;;;22.80;37.40;;;;;;5113794;27;19957;-72
2022/11/01 00:36:08;;;;;;;;;;;22.90;36.10;;;;;;5129987;27;20087;-73
2022/11/01 00:38:35;;;;;;;;;;;22.80;36.70;;;;;;5132383;27;20380;-73
2022/11/01 00:41:02;;;;;;;;;;;22.80;36.30;;;;;;5126982;27;19942;-72
2022/11/01 00:43:32;;;;;;;;;;;22.70;36.50;;;;;;5134950;27;19946;-73
2022/11/01 00:45:59;;;;;;;;;;;22.80;37.50;;;;;;5129217;27;20368;-72
2022/11/01 00:48:25;;;;;;;;;;;22.80;38.90;;;;;;5135579;27;19915;-72
2022/11/01 00:50:52;;;;;;;;;;;22.80;37.90;;;;;;5118197;27;19911;-73
2022/11/01 00:53:19;;;;;;;;;;;22.80;38.30;;;;;;5155174;27;19946;-72
2022/11/01 00:55:45;;;;;;;;;;;22.80;36.00;;;;;;5154346;27;19911;-72
2022/11/01 00:58:12;;;;;;;;;;;22.80;35.90;;;;;;5154502;27;19915;-72
2022/11/01 01:00:39;;;;;;;;;;;22.90;35.20;;;;;;5154572;27;19929;-72
2022/11/01 01:03:05;;;;;;;;;;;22.90;35.00;;;;;;5154856;27;19911;-72
2022/11/01 01:05:32;;;;;;;;;;;22.80;34.20;;;;;;5155764;27;19907;-72
2022/11/01 01:07:59;;;;;;;;;;;22.80;34.10;;;;;;5156432;27;19911;-72
2022/11/01 01:10:25;;;;;;;;;;;22.80;34.90;;;;;;5156367;27;19978;-72
2022/11/01 01:12:52;;;;;;;;;;;22.70;33.80;;;;;;5156479;27;19911;-72
2022/11/01 01:15:19;;;;;;;;;;;22.60;34.30;;;;;;5156296;27;19907;-72
2022/11/01 01:17:45;;;;;;;;;;;22.70;34.80;;;;;;5156415;27;19973;-72
2022/11/01 09:47:23;;;;;;;;;;;17.90;51.40;;;;;;6000691;23;3350548;-75
2022/11/01 09:49:52;;;;;;;;;;;17.80;51.70;;;;;;6121016;23;20288;-77
2022/11/01 09:52:19;;;;;;;;;;;17.80;51.60;;;;;;6121605;23;20328;-78
2022/11/01 09:54:46;;;;;;;;;;;17.80;52.10;;;;;;6121652;23;20233;-73
2022/11/01 09:57:16;;;;;;;;;;;17.80;51.80;;;;;;6095596;23;19987;-76
2022/11/01 09:59:49;;;;;;;;;;;17.80;52.00;;;;;;6120263;23;19915;-76
2022/11/01 10:02:17;;;;;;;;;;;17.80;52.20;;;;;;6117331;23;19905;-75
2022/11/01 10:05:02;;;;;;;;;;;17.80;52.60;;;;;;6121031;23;19913;-75
2022/11/01 10:07:31;;;;;;;;;;;17.70;51.50;;;;;;6120924;23;19913;-78
2022/11/01 10:09:57;;;;;;;;;;;17.60;52.40;;;;;;6120015;23;19972;-75
2022/11/01 10:12:30;;;;;;;;;;;17.70;52.90;;;;;;6095144;23;19917;-77
2022/11/01 10:15:00;;;;;;;;;;;17.60;52.80;;;;;;6121158;23;19916;-76
2022/11/01 10:17:38;;;;;;;;;;;17.60;53.00;;;;;;6122286;23;19908;-77
2022/11/01 10:20:05;;;;;;;;;;;17.60;53.30;;;;;;6095953;23;19959;-77
2022/11/01 10:22:33;;;;;;;;;;;17.60;53.40;;;;;;6094472;23;19988;-77
2022/11/01 10:25:28;;;;;;;;;;;17.50;53.30;;;;;;6121160;23;20252;-77
2022/11/01 10:28:01;;;;;;;;;;;17.50;54.40;;;;;;6065198;23;19989;-77
2022/11/01 10:30:28;;;;;;;;;;;17.50;54.40;;;;;;6121492;23;20260;-77
2022/11/01 10:33:15;;;;;;;;;;;17.40;54.50;;;;;;6095792;23;20244;-78
2022/11/01 10:35:42;;;;;;;;;;;17.40;54.70;;;;;;6121079;23;19920;-78
2022/11/01 10:38:27;;;;;;;;;;;17.40;54.80;;;;;;6095057;23;19913;-77
2022/11/01 10:41:06;;;;;;;;;;;17.30;54.80;;;;;;6120595;23;19939;-77
2022/11/01 10:44:07;;;;;;;;;;;17.20;54.90;;;;;;6095888;23;19905;-76
2022/11/01 10:59:31;;;;;;;;;;;17.20;56.30;;;;;;6132660;23;19927;-77
2022/11/01 11:01:59;;;;;;;;;;;17.10;56.70;;;;;;6181481;23;19917;-77
2022/11/01 11:04:25;;;;;;;;;;;17.10;56.90;;;;;;6158200;23;19908;-78
2022/11/01 11:06:52;;;;;;;;;;;17.10;57.20;;;;;;6181867;23;19938;-77
2022/11/01 11:09:20;;;;;;;;;;;17.10;56.90;;;;;;6156882;23;19905;-76
2022/11/01 11:11:47;;;;;;;;;;;17.20;56.60;;;;;;6157167;23;19924;-76
2022/11/01 11:14:14;;;;;;;;;;;17.10;54.70;;;;;;6157281;23;20251;-77
2022/11/01 11:16:40;;;;;;;;;;;17.00;53.40;;;;;;6182611;23;19948;-76
2022/11/01 11:19:07;;;;;;;;;;;16.90;51.40;;;;;;6183876;23;20296;-75
2022/11/01 11:21:33;;;;;;;;;;;16.90;51.90;;;;;;6159185;23;19911;-76
2022/11/01 11:24:00;;;;;;;;;;;17.00;52.20;;;;;;6185769;23;19904;-76
2022/11/01 11:26:27;;;;;;;;;;;17.00;52.60;;;;;;6160036;23;19911;-76
2022/11/01 11:28:56;;;;;;;;;;;17.10;53.70;;;;;;6159138;23;19904;-75
2022/11/01 11:31:27;;;;;;;;;;;17.00;52.30;;;;;;6159315;23;19920;-76
2022/11/01 11:34:00;;;;;;;;;;;16.90;50.90;;;;;;6159526;23;19908;-75
2022/11/01 11:36:27;;;;;;;;;;;16.70;50.20;;;;;;6159153;23;19911;-77
2022/11/01 11:38:54;;;;;;;;;;;16.70;49.60;;;;;;6159660;23;19987;-76
2022/11/01 11:41:31;;;;;;;;;;;16.70;49.80;;;;;;6159262;23;19904;-75
2022/11/01 11:43:57;;;;;;;;;;;16.70;50.10;;;;;;6159794;23;19908;-74
2022/11/01 11:46:24;;;;;;;;;;;16.80;49.80;;;;;;6158155;23;19912;-75
2022/11/01 11:48:59;;;;;;;;;;;16.80;50.00;;;;;;6185203;23;19904;-75
2022/11/01 11:51:29;;;;;;;;;;;16.60;49.80;;;;;;6185065;23;19951;-76
2022/11/01 11:54:04;;;;;;;;;;;16.50;49.20;;;;;;6185759;23;19911;-75
2022/11/01 11:56:30;;;;;;;;;;;16.50;49.60;;;;;;6159489;23;19905;-76
2022/11/01 11:58:57;;;;;;;;;;;16.50;49.60;;;;;;6184740;23;19967;-76
2022/11/01 12:01:24;;;;;;;;;;;16.50;49.40;;;;;;6185494;23;19916;-76
2022/11/01 12:03:58;;;;;;;;;;;16.50;49.60;;;;;;6159701;23;20284;-76
2022/11/01 12:06:25;;;;;;;;;;;16.50;49.40;;;;;;6134388;23;19904;-76
2022/11/01 12:08:52;;;;;;;;;;;16.50;49.10;;;;;;6134255;23;19987;-76
2022/11/01 12:11:19;;;;;;;;;;;16.50;49.20;;;;;;6185470;23;20188;-76
2022/11/01 12:13:59;;;;;;;;;;;16.40;49.30;;;;;;6185682;23;19909;-75
2022/11/01 12:16:25;;;;;;;;;;;16.40;48.30;;;;;;6159619;23;20308;-77
2022/11/01 12:18:53;;;;;;;;;;;16.30;48.80;;;;;;6185578;23;19992;-76
2022/11/01 12:21:26;;;;;;;;;;;16.20;49.40;;;;;;6159455;23;19904;-76
2022/11/01 12:23:57;;;;;;;;;;;16.20;49.80;;;;;;6159509;23;19912;-77
2022/11/01 12:26:24;;;;;;;;;;;16.20;49.20;;;;;;6134382;23;19908;-74
2022/11/01 12:28:56;;;;;;;;;;;16.20;49.20;;;;;;6185313;23;19932;-75
2022/11/01 12:31:22;;;;;;;;;;;16.20;49.10;;;;;;6184720;23;19916;-75
2022/11/01 12:33:53;;;;;;;;;;;16.10;49.50;;;;;;6157279;23;20243;-75
2022/11/01 12:36:34;;;;;;;;;;;16.00;50.60;;;;;;6185047;23;20212;-76
2022/11/01 12:39:12;;;;;;;;;;;16.00;49.70;;;;;;6134427;23;19905;-76
2022/11/01 12:41:39;;;;;;;;;;;16.10;50.00;;;;;;6185163;23;19908;-76
2022/11/01 12:44:17;;;;;;;;;;;16.00;50.10;;;;;;6185423;23;19904;-76
2022/11/01 12:46:51;;;;;;;;;;;16.00;50.30;;;;;;6134112;23;20243;-77
2022/11/01 12:49:34;;;;;;;;;;;16.00;50.20;;;;;;6184846;23;19900;-75
2022/11/01 12:52:03;;;;;;;;;;;16.00;50.60;;;;;;6184772;23;20307;-76
2022/11/01 12:54:32;;;;;;;;;;;16.00;50.80;;;;;;6184792;23;19911;-76
2022/11/01 12:56:58;;;;;;;;;;;16.00;51.00;;;;;;6185337;23;19929;-76
2022/11/01 12:59:32;;;;;;;;;;;16.00;50.70;;;;;;6158519;23;19912;-76
2022/11/01 13:02:01;;;;;;;;;;;15.90;50.70;;;;;;6159309;23;19908;-76
2022/11/01 13:04:28;;;;;;;;;;;15.90;50.80;;;;;;6159048;23;19915;-76
2022/11/01 13:07:09;;;;;;;;;;;15.80;50.90;;;;;;6185490;23;19913;-76
2022/11/01 13:09:45;;;;;;;;;;;15.80;50.40;;;;;;6184708;23;19959;-75
2022/11/01 13:12:17;;;;;;;;;;;15.80;50.90;;;;;;6185391;23;19939;-75
2022/11/01 13:14:57;;;;;;;;;;;15.80;50.80;;;;;;6185614;23;19919;-76
2022/11/01 13:17:27;;;;;;;;;;;15.80;50.90;;;;;;6184445;23;20235;-76
2022/11/01 13:20:02;;;;;;;;;;;15.70;50.90;;;;;;6184752;23;19975;-76
2022/11/01 15:51:15;;;;;;;;;;;14.50;49.50;;;;;;6181504;23;19939;-74
2022/11/01 15:53:42;;;;;;;;;;;14.50;49.30;;;;;;6159476;23;19920;-74
2022/11/01 15:56:19;;;;;;;;;;;14.50;49.10;;;;;;6159783;23;19931;-75
2022/11/01 15:58:47;;;;;;;;;;;14.40;49.40;;;;;;6185918;23;19908;-75
2022/11/01 16:01:15;;;;;;;;;;;14.40;49.60;;;;;;6185793;23;19967;-74
2022/11/01 16:04:10;;;;;;;;;;;14.40;49.90;;;;;;6159446;23;19904;-75
2022/11/01 16:06:42;;;;;;;;;;;14.30;49.70;;;;;;6154328;23;19905;-74
2022/11/01 16:09:32;;;;;;;;;;;14.30;50.50;;;;;;6159758;23;19931;-75
2022/11/01 16:11:59;;;;;;;;;;;14.30;50.30;;;;;;6166829;23;19920;-75
2022/11/01 16:14:30;;;;;;;;;;;14.30;49.70;;;;;;6159387;23;19904;-74
2022/11/01 16:16:59;;;;;;;;;;;14.40;49.20;;;;;;6159719;23;19936;-75
2022/11/01 16:19:35;;;;;;;;;;;14.30;48.90;;;;;;6185735;23;19904;-75
2022/11/01 16:22:02;;;;;;;;;;;14.30;49.40;;;;;;6186281;23;19935;-75
2022/11/01 16:24:29;;;;;;;;;;;14.30;49.60;;;;;;6185694;23;19912;-75
2022/11/01 16:26:57;;;;;;;;;;;14.30;49.50;;;;;;6184824;23;19904;-75
2022/11/01 16:29:41;;;;;;;;;;;14.30;50.00;;;;;;6185579;23;19916;-75
2022/11/01 16:32:15;;;;;;;;;;;14.30;50.10;;;;;;6158782;23;19913;-75
2022/11/01 16:34:42;;;;;;;;;;;14.30;49.50;;;;;;6184970;23;20305;-75
2022/11/01 16:37:21;;;;;;;;;;;14.30;49.60;;;;;;6185421;23;20023;-75
2022/11/01 16:39:48;;;;;;;;;;;14.30;50.00;;;;;;6185619;23;19912;-75
2022/11/01 16:42:15;;;;;;;;;;;14.20;50.20;;;;;;6158747;23;19904;-75
2022/11/01 16:44:42;;;;;;;;;;;14.20;50.60;;;;;;6159176;23;19908;-75
2022/11/01 16:47:12;;;;;;;;;;;14.20;50.90;;;;;;6159237;23;19908;-75
2022/11/01 16:49:44;;;;;;;;;;;14.20;51.10;;;;;;6158980;23;19915;-75
2022/11/01 16:52:11;;;;;;;;;;;14.20;51.40;;;;;;6185178;23;19955;-75
2022/11/01 16:54:37;;;;;;;;;;;14.20;51.70;;;;;;6134789;23;19911;-75
2022/11/01 16:57:04;;;;;;;;;;;14.20;51.40;;;;;;6185795;23;19908;-74
2022/11/01 16:59:36;;;;;;;;;;;14.20;51.70;;;;;;6159503;23;20316;-75
2022/11/01 17:02:15;;;;;;;;;;;14.10;52.00;;;;;;6185389;23;19904;-75
2022/11/01 17:04:42;;;;;;;;;;;14.10;52.30;;;;;;6185502;23;20257;-75
2022/11/01 17:07:11;;;;;;;;;;;14.00;52.60;;;;;;6158882;23;19946;-74
2022/11/01 17:09:38;;;;;;;;;;;14.00;52.50;;;;;;6184784;23;19904;-75
2022/11/01 17:12:05;;;;;;;;;;;14.00;52.90;;;;;;6158801;23;19958;-75
2022/11/01 17:14:34;;;;;;;;;;;14.00;53.20;;;;;;6158620;23;19966;-75
2022/11/01 17:17:06;;;;;;;;;;;14.00;53.10;;;;;;6158817;23;20228;-75
2022/11/01 17:19:32;;;;;;;;;;;14.00;53.10;;;;;;6184116;23;20301;-75
2022/11/01 17:21:59;;;;;;;;;;;14.00;52.70;;;;;;6184804;23;20291;-75
2022/11/01 17:24:26;;;;;;;;;;;14.00;53.10;;;;;;6185090;23;19911;-74
2022/11/01 17:26:54;;;;;;;;;;;14.00;52.80;;;;;;6185423;23;20209;-73
2022/11/01 17:29:20;;;;;;;;;;;14.00;52.80;;;;;;6184999;23;19911;-73
2022/11/01 17:31:47;;;;;;;;;;;14.00;53.00;;;;;;6158524;23;19920;-73
2022/11/01 17:34:15;;;;;;;;;;;14.00;52.90;;;;;;6158637;23;19912;-73
2022/11/01 17:36:42;;;;;;;;;;;13.90;53.10;;;;;;6158803;23;19905;-73
2022/11/01 17:39:09;;;;;;;;;;;13.90;53.70;;;;;;6157056;23;19950;-73
2022/11/01 17:41:36;;;;;;;;;;;13.90;53.00;;;;;;6157357;23;19904;-73
2022/11/01 17:44:02;;;;;;;;;;;13.90;53.30;;;;;;6184064;23;20268;-73
2022/11/01 17:46:29;;;;;;;;;;;13.90;53.70;;;;;;6158041;23;20296;-73
2022/11/01 17:48:55;;;;;;;;;;;13.80;52.40;;;;;;6184058;23;19987;-73
2022/11/01 17:51:22;;;;;;;;;;;13.80;53.00;;;;;;6157191;23;19917;-73
2022/11/01 17:53:52;;;;;;;;;;;13.80;53.10;;;;;;6157170;23;19935;-73
2022/11/01 17:56:19;;;;;;;;;;;13.70;53.20;;;;;;6157820;23;19905;-71
2022/11/01 17:58:49;;;;;;;;;;;13.70;53.60;;;;;;6184996;23;19912;-73
2022/11/01 18:01:17;;;;;;;;;;;13.70;52.80;;;;;;6184599;23;19912;-75
2022/11/01 18:03:44;;;;;;;;;;;13.70;52.40;;;;;;6157966;23;19904;-73
2022/11/01 18:06:11;;;;;;;;;;;13.70;51.30;;;;;;6184763;23;19958;-72
2022/11/01 18:08:47;;;;;;;;;;;13.70;50.10;;;;;;6184740;23;20035;-72
2022/11/01 18:11:28;;;;;;;;;;;13.70;50.60;;;;;;6184104;23;19987;-72
2022/11/01 18:14:01;;;;;;;;;;;13.70;51.20;;;;;;6158275;23;20377;-72
2022/11/01 18:16:28;;;;;;;;;;;13.70;50.00;;;;;;6158162;23;19935;-73
2022/11/01 18:18:55;;;;;;;;;;;13.70;50.40;;;;;;6156113;23;19939;-73
2022/11/01 18:21:31;;;;;;;;;;;13.60;50.10;;;;;;6184009;23;19967;-73
2022/11/01 18:24:02;;;;;;;;;;;13.60;50.20;;;;;;6133573;23;19904;-73
2022/11/01 18:26:29;;;;;;;;;;;13.60;50.00;;;;;;6184450;23;20217;-73
2022/11/01 18:29:14;;;;;;;;;;;13.50;49.80;;;;;;6184456;23;19950;-73
2022/11/01 18:31:41;;;;;;;;;;;13.60;51.70;;;;;;6183097;23;19919;-73
2022/11/01 18:34:07;;;;;;;;;;;13.50;50.30;;;;;;6158544;23;20359;-73
2022/11/01 18:36:45;;;;;;;;;;;13.50;51.40;;;;;;6184575;23;19931;-73
2022/11/01 18:39:23;;;;;;;;;;;13.50;50.60;;;;;;6158233;23;19905;-73
2022/11/01 18:41:50;;;;;;;;;;;13.50;50.90;;;;;;6159104;23;20308;-73
2022/11/01 18:44:16;;;;;;;;;;;13.50;50.30;;;;;;6184844;23;19909;-73
2022/11/01 18:46:50;;;;;;;;;;;13.50;50.40;;;;;;6184129;23;20291;-73
2022/11/01 18:49:16;;;;;;;;;;;13.40;51.00;;;;;;6158075;23;19909;-73
2022/11/01 18:51:45;;;;;;;;;;;13.40;50.30;;;;;;6183796;23;19916;-73
2022/11/01 18:54:19;;;;;;;;;;;13.50;50.90;;;;;;6184448;23;19940;-73
2022/11/01 18:56:47;;;;;;;;;;;13.40;50.50;;;;;;6158457;23;19904;-73
2022/11/01 18:59:30;;;;;;;;;;;13.40;51.10;;;;;;6158392;23;19908;-73
2022/11/01 19:02:01;;;;;;;;;;;13.40;51.20;;;;;;6159349;23;19905;-73
2022/11/01 19:04:29;;;;;;;;;;;13.40;51.50;;;;;;6158854;23;20210;-73
2022/11/01 19:06:57;;;;;;;;;;;13.40;51.40;;;;;;6184629;23;19904;-72
2022/11/01 19:09:27;;;;;;;;;;;13.40;51.80;;;;;;6158609;23;19938;-72
2022/11/01 19:11:59;;;;;;;;;;;13.30;51.90;;;;;;6184176;23;19948;-72
2022/11/01 19:14:25;;;;;;;;;;;13.40;51.10;;;;;;6158543;23;19987;-72
2022/11/01 19:16:52;;;;;;;;;;;13.50;51.90;;;;;;6158279;23;20324;-72
2022/11/01 19:19:19;;;;;;;;;;;13.50;51.30;;;;;;6184506;23;19947;-72
2022/11/01 19:21:46;;;;;;;;;;;13.60;51.90;;;;;;6184519;23;19983;-72
2022/11/01 19:24:29;;;;;;;;;;;13.60;51.00;;;;;;6183991;23;19983;-72
2022/11/01 19:26:56;;;;;;;;;;;13.70;51.70;;;;;;6184475;23;20340;-72
2022/11/01 19:29:26;;;;;;;;;;;13.70;51.90;;;;;;6158273;23;19905;-73
2022/11/01 19:31:53;;;;;;;;;;;13.80;51.10;;;;;;6184401;23;19913;-72
2022/11/01 19:34:21;;;;;;;;;;;13.80;51.90;;;;;;6184078;23;19951;-72
2022/11/01 19:36:48;;;;;;;;;;;13.90;51.90;;;;;;6184492;23;19908;-72
2022/11/01 19:39:21;;;;;;;;;;;14.00;51.90;;;;;;6185009;23;19912;-72
2022/11/01 19:41:48;;;;;;;;;;;14.00;52.20;;;;;;6186421;23;19905;-72
2022/11/01 19:44:17;;;;;;;;;;;14.00;51.70;;;;;;6185992;23;20354;-72
2022/11/01 19:46:44;;;;;;;;;;;14.00;51.30;;;;;;6159687;23;19962;-72
2022/11/01 19:49:28;;;;;;;;;;;14.00;51.40;;;;;;6186234;23;19943;-72
2022/11/01 19:51:59;;;;;;;;;;;14.10;51.30;;;;;;6160110;23;19987;-73
2022/11/01 19:54:26;;;;;;;;;;;14.10;51.00;;;;;;6186245;23;20247;-72
2022/11/01 19:56:55;;;;;;;;;;;14.10;50.80;;;;;;6186048;23;19939;-72
2022/11/01 19:59:22;;;;;;;;;;;14.10;50.90;;;;;;6159483;23;19947;-72
2022/11/01 20:01:49;;;;;;;;;;;14.20;50.60;;;;;;6185630;23;19908;-72
2022/11/01 20:04:20;;;;;;;;;;;14.20;50.90;;;;;;6185810;23;19908;-72
2022/11/01 20:06:47;;;;;;;;;;;14.20;50.50;;;;;;6185702;23;20004;-72
2022/11/01 20:09:30;;;;;;;;;;;14.20;50.40;;;;;;6185504;23;19958;-72
2022/11/01 20:11:56;;;;;;;;;;;14.30;49.80;;;;;;6185560;23;19995;-72
2022/11/01 20:14:23;;;;;;;;;;;14.30;49.80;;;;;;6159760;23;19951;-72
2022/11/01 20:16:49;;;;;;;;;;;14.30;49.70;;;;;;6185876;23;19911;-73
2022/11/01 21:58:37;;;;;;;;;;;15.70;41.70;;;;;;6093954;23;19984;-67
2022/11/01 22:01:03;;;;;;;;;;;15.70;41.10;;;;;;6094444;23;19913;-68
2022/11/01 22:03:30;;;;;;;;;;;15.60;41.10;;;;;;6094336;23;20250;-67
2022/11/01 22:05:57;;;;;;;;;;;15.70;40.30;;;;;;6070566;23;19947;-67
2022/11/01 22:08:23;;;;;;;;;;;15.80;39.90;;;;;;6094765;23;19988;-68
2022/11/01 22:10:50;;;;;;;;;;;16.00;40.20;;;;;;6095759;23;19952;-68
2022/11/01 22:13:16;;;;;;;;;;;16.30;40.10;;;;;;6070639;23;19941;-67
2022/11/01 22:15:43;;;;;;;;;;;16.40;38.80;;;;;;6095530;23;19909;-68
2022/11/01 22:18:10;;;;;;;;;;;16.50;38.30;;;;;;6096220;23;19912;-68
2022/11/01 22:20:36;;;;;;;;;;;16.60;38.00;;;;;;6096135;23;19976;-68
2022/11/01 22:23:03;;;;;;;;;;;16.70;39.20;;;;;;6095617;23;19905;-68
2022/11/01 22:25:29;;;;;;;;;;;16.80;38.70;;;;;;6095457;23;19951;-68
2022/11/01 22:27:56;;;;;;;;;;;16.80;37.70;;;;;;6095752;23;19960;-68
2022/11/01 22:30:22;;;;;;;;;;;16.80;38.60;;;;;;6094447;23;20253;-68
2022/11/01 22:32:49;;;;;;;;;;;16.80;36.90;;;;;;6095594;23;19914;-68
2022/11/01 22:35:16;;;;;;;;;;;16.80;37.50;;;;;;6095219;23;19985;-68
2022/11/01 22:37:42;;;;;;;;;;;16.80;36.80;;;;;;6095094;23;19905;-68
2022/11/01 22:40:12;;;;;;;;;;;17.00;37.40;;;;;;6094207;23;19909;-67
2022/11/01 22:42:39;;;;;;;;;;;17.10;37.10;;;;;;6095953;23;19906;-68
2022/11/01 22:45:12;;;;;;;;;;;17.00;36.90;;;;;;6070616;23;19916;-68
2022/11/01 22:47:39;;;;;;;;;;;17.10;37.60;;;;;;6096279;23;19916;-67
2022/11/01 22:50:05;;;;;;;;;;;17.10;36.90;;;;;;6070415;23;19905;-68
2022/11/01 22:52:40;;;;;;;;;;;17.10;37.60;;;;;;6070520;23;19920;-67
2022/11/01 22:55:09;;;;;;;;;;;17.10;37.50;;;;;;6095704;23;20286;-68
2022/11/01 22:57:39;;;;;;;;;;;17.30;37.60;;;;;;6095881;23;19987;-67
2022/11/01 23:00:21;;;;;;;;;;;17.50;37.80;;;;;;6095918;23;19909;-68
2022/11/01 23:02:48;;;;;;;;;;;17.40;37.10;;;;;;6095822;23;19912;-68
2022/11/01 23:05:23;;;;;;;;;;;17.50;37.90;;;;;;6095785;23;19909;-69
2022/11/01 23:07:51;;;;;;;;;;;17.30;38.00;;;;;;6095753;23;19905;-68
2022/11/01 23:10:21;;;;;;;;;;;17.40;38.00;;;;;;6070288;23;19906;-68
2022/11/01 23:15:33;;;;;;;;;;;17.30;39.30;;;;;;6097630;23;19971;-68
2022/11/01 23:18:00;;;;;;;;;;;17.30;38.80;;;;;;6097867;23;20341;-68
2022/11/01 23:20:28;;;;;;;;;;;17.20;38.90;;;;;;6097573;23;19912;-68
2022/11/01 23:22:55;;;;;;;;;;;17.30;39.40;;;;;;6097294;23;19912;-68
2022/11/01 23:25:21;;;;;;;;;;;17.30;38.20;;;;;;6072055;23;19909;-69
2022/11/01 23:27:48;;;;;;;;;;;17.50;37.80;;;;;;6097933;23;19944;-68
2022/11/01 23:30:15;;;;;;;;;;;17.70;36.80;;;;;;6097397;23;19906;-68
2022/11/01 23:32:41;;;;;;;;;;;17.60;36.60;;;;;;6097752;23;19996;-68
2022/11/01 23:35:12;;;;;;;;;;;17.70;36.10;;;;;;6072255;23;19909;-68
2022/11/01 23:37:39;;;;;;;;;;;17.70;35.30;;;;;;6072105;23;19953;-68
2022/11/01 23:40:13;;;;;;;;;;;17.70;34.80;;;;;;6097525;23;19906;-68
2022/11/01 23:42:39;;;;;;;;;;;17.60;35.20;;;;;;6097494;23;19938;-68
2022/11/01 23:45:07;;;;;;;;;;;17.70;35.20;;;;;;6096987;23;19906;-68
2022/11/01 23:47:36;;;;;;;;;;;17.60;35.40;;;;;;6072056;23;20229;-68
2022/11/01 23:50:03;;;;;;;;;;;17.50;35.30;;;;;;6071829;23;19909;-68
2022/11/01 23:52:39;;;;;;;;;;;17.70;35.60;;;;;;6097197;23;20280;-68
2022/11/01 23:55:06;;;;;;;;;;;17.70;36.00;;;;;;6072201;23;19905;-69
2022/11/01 23:57:33;;;;;;;;;;;17.70;35.50;;;;;;6097531;23;20359;-69
